CheckWX is a tool to help pilots better visualize weather data.  It is not intended as a substitute for an official pre-flight weather briefing.

00:31:27 UTC

SPQT TAF
Coronel FAP Francisco Secada Vignetta International Airport
Iquitos, Peru
TAF SPQT 252300Z 2600/2624 24003KT 9999 SCT020 SCT100 TX33/2620Z TN23/2611Z TEMPO 2607/2611 5000 -DZRA BR BKN010 BKN070 BECMG 2612/2614 36003KT BKN015 SCT100 PROB40 TEMPO 2620/2623 07005KT 5000 SHRA BKN012 FEW020TCU

Mar-26@
00:00 UTC

Mar-26 @ 00:00 UTC

Mar-26@
12:00 UTC

Mar-26 @ 12:00 UTC

TAF SPQT 252300Z 2600/2624 24003KT 9999 SCT020 SCT100 TX33/2620Z TN23/2611Z
Wind
  • 240° at 3 KTS
Cloud Levels
  • Scattered at 2,000' AGL
  • Scattered at 10,000' AGL

Mar-26@
07:00 UTC

Mar-26 @ 07:00 UTC

Mar-26@
11:00 UTC

Mar-26 @ 11:00 UTC

TEMPO 2607/2611 5000 -DZRA BR BKN010 BKN070

Temporary

Temporary Changes expected for less than half the time period

Conditions
Light Drizzle, Light Rain, Mist
Cloud Levels
  • Broken at 1,000' AGL
  • Broken at 7,000' AGL

Mar-26@
12:00 UTC

Mar-26 @ 12:00 UTC

Mar-27@
00:00 UTC

Mar-27 @ 00:00 UTC

BECMG 2612/2614 36003KT BKN015 SCT100

Becoming

Becoming Conditions expected by Tue, Mar 26, 2019 @ 14:00 UTC

Wind
  • 360° at 3 KTS
Cloud Levels
  • Broken at 1,500' AGL
  • Scattered at 10,000' AGL

Mar-26@
20:00 UTC

Mar-26 @ 20:00 UTC

Mar-26@
23:00 UTC

Mar-26 @ 23:00 UTC

PROB40 TEMPO 2620/2623 07005KT 5000 SHRA BKN012 FEW020TCU

Temporary - 40% Likelihood

Temporary - 40% Likelihood during this time.

Wind
  • 070° at 5 KTS
Conditions
Rain
Cloud Levels
  • Broken at 1,200' AGL
  • Few at 2,000' AGL